createdAt,value
2018-06-05T00:00:54.208Z,98367.98
2018-06-05T00:03:24.205Z,98375.91
2018-06-05T00:05:54.799Z,98363.99
2018-06-05T00:08:24.819Z,98351.91
2018-06-05T00:10:55.082Z,98365.73
2018-06-05T00:13:25.167Z,98357.90
2018-06-05T00:15:55.923Z,98359.16
2018-06-05T00:18:25.780Z,98365.48
2018-06-05T00:20:55.189Z,98358.95
2018-06-05T00:23:24.654Z,98358.73
2018-06-05T00:25:58.269Z,98354.22
2018-06-05T00:28:27.692Z,98358.60
2018-06-05T00:30:57.103Z,98361.61
2018-06-05T00:33:26.649Z,98354.05
2018-06-05T00:35:56.074Z,98355.17
2018-06-05T00:38:25.444Z,98350.55
2018-06-05T00:40:54.887Z,98356.58
2018-06-05T00:43:24.300Z,98361.15
2018-06-05T00:45:54.804Z,98360.80
2018-06-05T00:48:24.398Z,98357.22
2018-06-05T00:50:54.238Z,98359.94
2018-06-05T00:53:23.606Z,98362.19
2018-06-05T00:55:52.963Z,98357.52
2018-06-05T00:58:22.363Z,98361.52
2018-06-05T01:00:51.765Z,98360.19
2018-06-05T01:03:21.157Z,98358.07
2018-06-05T01:05:58.784Z,98360.51
2018-06-05T01:08:28.156Z,98357.73
2018-06-05T01:11:01.106Z,98365.65
2018-06-05T01:13:30.587Z,98364.58
2018-06-05T01:15:59.974Z,98364.88
2018-06-05T01:18:29.386Z,98368.75
2018-06-05T01:20:58.779Z,98372.13
2018-06-05T01:23:28.869Z,98381.97
2018-06-05T01:25:58.294Z,98374.74
2018-06-05T01:28:27.673Z,98375.16
2018-06-05T01:30:57.069Z,98374.23
2018-06-05T01:33:26.567Z,98369.22
2018-06-05T01:35:56.397Z,98371.33
2018-06-05T01:38:25.751Z,98368.19
2018-06-05T01:40:55.148Z,98373.78
2018-06-05T01:43:24.528Z,98372.11
2018-06-05T01:45:54.022Z,98371.60
2018-06-05T01:48:23.396Z,98367.95
2018-06-05T01:50:52.761Z,98370.40
2018-06-05T01:53:22.616Z,98369.63
2018-06-05T01:55:52.019Z,98379.26
2018-06-05T01:58:21.372Z,98377.84
2018-06-05T02:00:50.759Z,98383.66
2018-06-05T02:03:20.145Z,98387.22
2018-06-05T02:05:49.601Z,98384.08
2018-06-05T02:08:19.487Z,98380.89
2018-06-05T02:10:49.102Z,98377.02
2018-06-05T02:13:24.869Z,98380.34
2018-06-05T02:15:55.016Z,98382.12
2018-06-05T02:18:26.032Z,98377.86
2018-06-05T02:21:07.047Z,98378.23
2018-06-05T02:23:36.416Z,98390.19
2018-06-05T02:26:05.886Z,98390.22
2018-06-05T02:28:35.377Z,98392.06
2018-06-05T02:31:05.210Z,98394.22
2018-06-05T02:33:34.556Z,98398.34
2018-06-05T02:36:04.418Z,98402.88
2018-06-05T02:38:33.794Z,98396.78
2018-06-05T02:41:07.598Z,98400.58
2018-06-05T02:43:36.968Z,98391.38
2018-06-05T02:46:06.362Z,98397.61
2018-06-05T02:48:36.408Z,98402.33
2018-06-05T02:51:05.973Z,98400.58
2018-06-05T02:53:35.401Z,98402.00
2018-06-05T02:56:04.990Z,98400.41
2018-06-05T02:58:34.376Z,98400.41
2018-06-05T03:01:03.767Z,98406.19
2018-06-05T03:03:33.167Z,98403.95
2018-06-05T03:06:02.564Z,98401.44
2018-06-05T03:08:32.017Z,98404.70
2018-06-05T03:11:01.403Z,98400.84
2018-06-05T03:13:30.776Z,98400.59
2018-06-05T03:16:00.154Z,98401.70
2018-06-05T03:18:29.745Z,98410.82
2018-06-05T03:20:59.100Z,98409.19
2018-06-05T03:23:28.566Z,98405.15
2018-06-05T03:25:57.963Z,98404.38
2018-06-05T03:28:27.347Z,98407.95
2018-06-05T03:30:58.637Z,98399.55
2018-06-05T03:33:28.009Z,98408.97
2018-06-05T03:35:57.500Z,98400.32
2018-06-05T03:38:26.876Z,98408.41
2018-06-05T03:40:56.289Z,98404.08
2018-06-05T03:43:25.705Z,98405.56
2018-06-05T03:45:55.234Z,98401.42
2018-06-05T03:48:24.596Z,98385.70
2018-06-05T03:50:54.021Z,98407.19
2018-06-05T03:53:24.136Z,98400.63
2018-06-05T03:55:53.916Z,98401.05
2018-06-05T03:58:23.314Z,98408.13
2018-06-05T04:00:58.052Z,98407.16
2018-06-05T04:03:27.537Z,98413.98
2018-06-05T04:05:58.778Z,98411.73
2018-06-05T04:08:28.215Z,98407.80
2018-06-05T04:10:57.587Z,98414.64
2018-06-05T04:13:26.953Z,98406.14
2018-06-05T04:18:32.639Z,98401.18
2018-06-05T04:21:05.405Z,98400.41
2018-06-05T04:23:34.789Z,98405.42
2018-06-05T04:26:04.260Z,98401.55
2018-06-05T04:28:33.926Z,98402.40
2018-06-05T04:31:03.432Z,98402.65
2018-06-05T04:33:32.641Z,98410.94
2018-06-05T04:36:02.098Z,98405.23
2018-06-05T04:38:31.649Z,98417.19
2018-06-05T04:41:01.079Z,98415.95
2018-06-05T04:43:30.511Z,98412.16
2018-06-05T04:46:00.168Z,98411.95
2018-06-05T04:48:29.520Z,98422.77
2018-06-05T04:50:59.006Z,98421.87
2018-06-05T04:53:28.399Z,98426.74
2018-06-05T04:55:58.078Z,98427.61
2018-06-05T04:58:27.492Z,98425.59
2018-06-05T05:00:56.909Z,98432.67
2018-06-05T05:03:26.399Z,98433.98
2018-06-05T05:06:03.100Z,98436.70
2018-06-05T05:08:32.605Z,98433.91
2018-06-05T05:11:02.902Z,98439.23
2018-06-05T05:13:32.320Z,98433.48
2018-06-05T05:16:01.803Z,98438.47
2018-06-05T05:18:31.215Z,98432.38
2018-06-05T05:21:00.672Z,98438.64
2018-06-05T05:23:30.749Z,98440.30
2018-06-05T05:26:00.354Z,98444.38
2018-06-05T05:28:29.791Z,98452.46
2018-06-05T05:31:12.265Z,98452.74
2018-06-05T05:33:41.848Z,98455.06
2018-06-05T05:36:11.272Z,98459.42
2018-06-05T05:38:40.808Z,98464.20
2018-06-05T05:41:10.324Z,98474.67
2018-06-05T05:43:39.793Z,98470.06
2018-06-05T05:46:09.211Z,98467.80
2018-06-05T05:48:38.814Z,98472.37
2018-06-05T05:51:08.228Z,98476.95
2018-06-05T05:53:37.617Z,98476.47
2018-06-05T05:56:07.046Z,98482.93
2018-06-05T05:58:36.438Z,98479.13
2018-06-05T06:01:05.906Z,98478.27
2018-06-05T06:03:35.336Z,98483.61
2018-06-05T06:06:04.720Z,98480.82
2018-06-05T06:08:34.151Z,98485.55
2018-06-05T06:11:03.543Z,98485.73
2018-06-05T06:13:33.004Z,98479.13
2018-06-05T06:16:03.206Z,98487.14
2018-06-05T06:18:32.645Z,98455.88
2018-06-05T06:21:02.109Z,98482.36
2018-06-05T06:23:31.647Z,98486.98
2018-06-05T06:26:01.065Z,98489.22
2018-06-05T06:28:30.624Z,98028.27
2018-06-05T06:31:05.685Z,98489.24
2018-06-05T06:33:35.121Z,98489.34
2018-06-05T06:36:04.559Z,98491.08
2018-06-05T06:38:33.927Z,98484.10
2018-06-05T06:41:03.532Z,98495.95
2018-06-05T06:43:33.225Z,98486.20
2018-06-05T06:46:02.643Z,98491.41
2018-06-05T06:48:32.077Z,98482.88
2018-06-05T06:51:01.690Z,98484.56
2018-06-05T06:53:31.138Z,98488.94
2018-06-05T06:56:00.573Z,98487.92
2018-06-05T06:58:30.026Z,98485.61
2018-06-05T07:00:59.429Z,98481.92
2018-06-05T07:03:28.808Z,98479.75
2018-06-05T07:05:58.246Z,98479.26
2018-06-05T07:08:27.681Z,98480.60
2018-06-05T07:10:57.097Z,98484.47
2018-06-05T07:13:26.677Z,98479.61
2018-06-05T07:15:56.129Z,98492.69
2018-06-05T07:18:25.577Z,98478.09
2018-06-05T07:20:54.968Z,98488.17
2018-06-05T07:23:24.575Z,98439.61
2018-06-05T07:25:54.095Z,98486.31
2018-06-05T07:28:23.646Z,98481.48
2018-06-05T07:30:53.127Z,98477.44
2018-06-05T07:33:25.956Z,98483.00
2018-06-05T07:35:55.373Z,98476.26
2018-06-05T07:38:24.776Z,98469.86
2018-06-05T07:40:56.297Z,98484.63
2018-06-05T07:43:25.910Z,98482.13
2018-06-05T07:45:55.459Z,98488.66
2018-06-05T07:48:24.843Z,98485.80
2018-06-05T07:50:54.246Z,98489.67
2018-06-05T07:53:23.656Z,98478.91
2018-06-05T07:55:53.060Z,98479.73
2018-06-05T07:58:22.572Z,98485.47
2018-06-05T08:00:51.955Z,98480.09
2018-06-05T08:03:21.398Z,98480.25
2018-06-05T08:05:50.862Z,98474.98
2018-06-05T08:08:20.237Z,98485.20
2018-06-05T08:10:49.616Z,98486.88
2018-06-05T08:13:19.023Z,98483.21
2018-06-05T08:15:48.427Z,98489.12
2018-06-05T08:18:17.853Z,98482.39
2018-06-05T08:20:47.230Z,98491.60
2018-06-05T08:23:16.629Z,98486.30
2018-06-05T08:25:46.033Z,98495.53
2018-06-05T08:28:15.487Z,98497.90
2018-06-05T08:30:44.922Z,98492.18
2018-06-05T08:33:14.314Z,98491.47
2018-06-05T08:35:43.709Z,98495.23
2018-06-05T08:38:13.116Z,98501.73
2018-06-05T08:40:42.514Z,98493.00
2018-06-05T08:43:11.912Z,98501.36
2018-06-05T08:45:41.308Z,98497.36
2018-06-05T08:48:10.729Z,98504.89
2018-06-05T08:50:40.175Z,98501.59
2018-06-05T08:53:09.578Z,98501.11
2018-06-05T08:55:39.023Z,98501.69
2018-06-05T08:58:09.382Z,98505.75
2018-06-05T09:00:38.778Z,98500.09
2018-06-05T09:03:08.176Z,98502.18
2018-06-05T09:05:37.598Z,98501.74
2018-06-05T09:08:07.001Z,98505.09
2018-06-05T09:10:36.460Z,98498.42
2018-06-05T09:13:05.859Z,98505.41
2018-06-05T09:15:35.334Z,98498.33
2018-06-05T09:18:04.780Z,98500.44
2018-06-05T09:20:34.184Z,98502.79
2018-06-05T09:23:03.622Z,98487.91
2018-06-05T09:25:32.998Z,98497.10
2018-06-05T09:28:02.400Z,98492.66
2018-06-05T09:30:31.804Z,98484.56
2018-06-05T09:33:01.190Z,98488.20
2018-06-05T09:35:32.262Z,98485.32
2018-06-05T09:38:01.684Z,98487.70
2018-06-05T09:40:33.570Z,98484.92
2018-06-05T09:43:03.134Z,98481.75
2018-06-05T09:45:32.644Z,98480.84
2018-06-05T09:48:02.005Z,98482.59
2018-06-05T09:50:31.794Z,98482.50
2018-06-05T09:53:01.917Z,98473.45
2018-06-05T09:55:31.631Z,98334.70
2018-06-05T09:58:01.053Z,98467.66
2018-06-05T10:00:35.799Z,98466.59
2018-06-05T10:03:05.197Z,98472.56
2018-06-05T10:05:34.661Z,98464.14
2018-06-05T10:08:04.393Z,98464.56
2018-06-05T10:10:33.841Z,98455.50
2018-06-05T10:13:03.336Z,98453.98
2018-06-05T10:15:32.771Z,98448.09
2018-06-05T10:18:02.134Z,98445.80
2018-06-05T10:20:31.909Z,98436.88
2018-06-05T10:23:01.337Z,98436.73
2018-06-05T10:25:30.713Z,98430.20
2018-06-05T10:28:00.090Z,98422.00
2018-06-05T10:30:29.462Z,98423.11
2018-06-05T10:32:58.885Z,98425.82
2018-06-05T10:35:30.201Z,98402.75
2018-06-05T10:38:02.064Z,98415.70
2018-06-05T10:40:31.556Z,98412.55
2018-06-05T10:43:00.980Z,98412.54
2018-06-05T10:45:30.379Z,98417.26
2018-06-05T10:47:59.767Z,98415.13
2018-06-05T10:50:29.167Z,98407.98
2018-06-05T10:52:58.604Z,98410.60
2018-06-05T10:55:30.948Z,98401.77
2018-06-05T10:58:00.346Z,98398.16
2018-06-05T11:00:29.837Z,98397.24
2018-06-05T11:02:59.459Z,98392.14
2018-06-05T11:05:30.824Z,98399.78
2018-06-05T11:08:00.209Z,98383.05
2018-06-05T11:10:35.154Z,98388.48
2018-06-05T11:13:06.580Z,98387.80
2018-06-05T11:15:36.979Z,98245.44
2018-06-05T11:18:06.464Z,98382.75
2018-06-05T11:20:35.865Z,98376.71
2018-06-05T11:23:05.368Z,98375.03
2018-06-05T11:25:34.773Z,98378.80
2018-06-05T11:28:04.183Z,98375.66
2018-06-05T11:30:33.592Z,98371.14
2018-06-05T11:33:03.084Z,98373.45
2018-06-05T11:35:32.469Z,98366.75
2018-06-05T11:38:01.957Z,98376.04
2018-06-05T11:40:34.542Z,98377.12
2018-06-05T11:43:05.627Z,98371.50
2018-06-05T11:45:35.522Z,98377.83
2018-06-05T11:48:05.092Z,98369.89
2018-06-05T11:50:34.555Z,98237.61
2018-06-05T11:53:04.039Z,98370.52
2018-06-05T11:55:33.543Z,98367.88
2018-06-05T11:58:03.099Z,98364.56
2018-06-05T12:00:32.561Z,98361.85
2018-06-05T12:03:01.988Z,98361.97
2018-06-05T12:05:31.788Z,98361.16
2018-06-05T12:08:01.299Z,98356.57
2018-06-05T12:10:30.749Z,98354.78
2018-06-05T12:13:00.209Z,98354.26
2018-06-05T12:15:29.882Z,98363.40
2018-06-05T12:17:59.423Z,98356.55
2018-06-05T12:20:32.275Z,98348.58
2018-06-05T12:23:01.714Z,98351.13
2018-06-05T12:25:31.157Z,98357.05
2018-06-05T12:28:00.485Z,98345.91
2018-06-05T12:30:29.985Z,98341.92
2018-06-05T12:32:59.332Z,98334.58
2018-06-05T12:35:29.943Z,98318.62
2018-06-05T12:37:59.445Z,98330.16
2018-06-05T12:40:29.245Z,98324.30
2018-06-05T12:42:58.744Z,98331.56
2018-06-05T12:45:28.186Z,98329.47
2018-06-05T12:47:57.593Z,98321.34
2018-06-05T12:50:29.752Z,98328.85
2018-06-05T12:52:59.141Z,98332.77
2018-06-05T12:55:31.483Z,98325.33
2018-06-05T12:58:00.951Z,98317.70
2018-06-05T13:00:30.732Z,98317.94
2018-06-05T13:03:00.230Z,98318.44
2018-06-05T13:05:30.038Z,98324.98
2018-06-05T13:07:59.657Z,98327.80
2018-06-05T13:10:29.083Z,98323.47
2018-06-05T13:12:58.469Z,98324.72
2018-06-05T13:15:28.161Z,98321.08
2018-06-05T13:17:57.721Z,98311.71
2018-06-05T13:20:27.205Z,98313.99
2018-06-05T13:22:56.765Z,98298.72
2018-06-05T13:25:30.613Z,98302.55
2018-06-05T13:28:00.093Z,98313.50
2018-06-05T13:30:31.751Z,98315.03
2018-06-05T13:33:01.167Z,98318.41
2018-06-05T13:35:32.545Z,98318.98
2018-06-05T13:38:01.959Z,98317.35
2018-06-05T13:40:31.400Z,98329.75
2018-06-05T13:43:00.829Z,98328.31
2018-06-05T13:45:30.453Z,98321.80
2018-06-05T13:47:59.979Z,98328.33
2018-06-05T13:50:29.456Z,98328.14
2018-06-05T13:52:58.872Z,98323.84
2018-06-05T13:55:29.379Z,98324.33
2018-06-05T13:57:58.816Z,98317.44
2018-06-05T14:00:29.534Z,98329.02
2018-06-05T14:02:58.904Z,98305.88
2018-06-05T14:05:30.212Z,98312.53
2018-06-05T14:07:59.658Z,98314.94
2018-06-05T14:10:29.427Z,98316.95
2018-06-05T14:12:58.770Z,98323.95
2018-06-05T14:15:28.173Z,98322.98
2018-06-05T14:17:57.579Z,98327.53
2018-06-05T14:20:29.779Z,98190.03
2018-06-05T14:22:59.179Z,98240.42
2018-06-05T14:25:28.578Z,98313.08
2018-06-05T14:27:58.021Z,98313.33
2018-06-05T14:30:27.640Z,98307.80
2018-06-05T14:32:57.056Z,98307.00
2018-06-05T14:35:26.570Z,98304.11
2018-06-05T14:37:56.094Z,98301.09
2018-06-05T14:40:27.725Z,98295.49
2018-06-05T14:42:57.124Z,98300.58
2018-06-05T14:45:26.667Z,98294.00
2018-06-05T14:47:56.250Z,98304.40
2018-06-05T14:50:26.150Z,98018.87
2018-06-05T14:52:55.547Z,98316.77
2018-06-05T14:55:26.564Z,98310.39
2018-06-05T14:57:55.972Z,98315.30
2018-06-05T15:00:29.093Z,98316.43
2018-06-05T15:02:58.480Z,98328.66
2018-06-05T15:05:30.473Z,98326.28
2018-06-05T15:07:59.892Z,98328.33
2018-06-05T15:10:29.276Z,98328.33
2018-06-05T15:12:58.768Z,98328.81
2018-06-05T15:15:28.607Z,98329.81
2018-06-05T15:17:57.996Z,98335.58
2018-06-05T15:20:30.079Z,98337.47
2018-06-05T15:23:08.624Z,98336.80
2018-06-05T15:25:38.205Z,98340.52
2018-06-05T15:28:08.652Z,98350.27
2018-06-05T15:30:38.065Z,98354.09
2018-06-05T15:33:07.475Z,98350.64
2018-06-05T15:35:37.018Z,98355.30
2018-06-05T15:38:06.423Z,98348.06
2018-06-05T15:40:41.800Z,98340.02
2018-06-05T15:43:11.231Z,98345.05
2018-06-05T15:45:40.849Z,98348.98
2018-06-05T15:48:10.820Z,98348.31
2018-06-05T15:50:40.266Z,98344.26
2018-06-05T15:53:09.744Z,98354.44
2018-06-05T15:58:26.985Z,98352.12
2018-06-05T16:00:56.413Z,98350.39
2018-06-05T16:03:25.816Z,98354.81
2018-06-05T16:05:55.696Z,98346.52
2018-06-05T16:08:25.120Z,98359.59
2018-06-05T16:10:54.557Z,98356.11
2018-06-05T16:13:23.932Z,98355.48
2018-06-05T16:15:53.360Z,98361.20
2018-06-05T16:18:22.754Z,98364.17
2018-06-05T16:20:52.132Z,98365.95
2018-06-05T16:23:21.520Z,98365.37
2018-06-05T16:25:50.942Z,98373.73
2018-06-05T16:28:20.318Z,98375.88
2018-06-05T16:30:56.103Z,98379.86
2018-06-05T16:33:25.618Z,98379.55
2018-06-05T16:35:55.189Z,98378.62
2018-06-05T16:38:24.785Z,98384.42
2018-06-05T16:40:54.169Z,98118.69
2018-06-05T16:43:24.267Z,98382.48
2018-06-05T16:45:54.356Z,98384.92
2018-06-05T16:48:23.752Z,98386.55
2018-06-05T16:50:53.401Z,98388.89
2018-06-05T16:53:22.837Z,98399.52
2018-06-05T16:55:52.303Z,98388.66
2018-06-05T16:58:21.880Z,98396.58
2018-06-05T17:00:51.767Z,98401.72
2018-06-05T17:03:21.158Z,98403.70
2018-06-05T17:05:51.278Z,98413.29
2018-06-05T17:08:20.707Z,98402.48
2018-06-05T17:10:50.164Z,98404.36
2018-06-05T17:13:19.600Z,98402.12
2018-06-05T17:15:49.017Z,98411.75
2018-06-05T17:18:18.426Z,98413.73
2018-06-05T17:20:47.802Z,98422.30
2018-06-05T17:23:17.440Z,98235.13
2018-06-05T17:25:46.827Z,98417.61
2018-06-05T17:28:16.473Z,98428.59
2018-06-05T17:30:45.893Z,98428.73
2018-06-05T17:33:15.261Z,98431.11
2018-06-05T17:35:45.138Z,98430.13
2018-06-05T17:38:14.589Z,98431.81
2018-06-05T17:40:44.006Z,98436.76
2018-06-05T17:43:13.396Z,98435.67
2018-06-05T17:45:43.797Z,98438.69
2018-06-05T17:48:13.230Z,98444.36
2018-06-05T17:50:42.606Z,98452.28
2018-06-05T17:53:12.917Z,98451.30
2018-06-05T17:55:42.489Z,98454.58
2018-06-05T17:58:11.868Z,98454.44
2018-06-05T18:00:44.731Z,98459.30
2018-06-05T18:03:14.255Z,98459.42
2018-06-05T18:05:48.740Z,98466.17
2018-06-05T18:08:18.118Z,98465.51
2018-06-05T18:10:47.688Z,98467.34
2018-06-05T18:13:17.200Z,98460.81
2018-06-05T18:15:46.617Z,98468.73
2018-06-05T18:18:16.084Z,98466.27
2018-06-05T18:20:46.125Z,98472.05
2018-06-05T18:23:18.727Z,98474.50
2018-06-05T18:25:54.664Z,98475.31
2018-06-05T18:28:24.933Z,98482.89
2018-06-05T18:30:54.370Z,98481.75
2018-06-05T18:33:23.784Z,98485.73
2018-06-05T18:35:53.224Z,98484.42
2018-06-05T18:38:22.574Z,98490.91
2018-06-05T18:40:51.953Z,98492.97
2018-06-05T18:43:21.414Z,98493.74
2018-06-05T18:45:50.861Z,98497.97
2018-06-05T18:48:20.261Z,98497.50
2018-06-05T18:50:49.656Z,98516.80
2018-06-05T18:53:19.110Z,98512.92
2018-06-05T18:55:48.573Z,98519.98
2018-06-05T18:58:17.969Z,98515.91
2018-06-05T19:03:30.064Z,98515.00
2018-06-05T19:05:59.501Z,98520.41
2018-06-05T19:08:29.303Z,98521.51
2018-06-05T19:10:58.860Z,98530.41
2018-06-05T19:13:28.235Z,98521.05
2018-06-05T19:15:58.989Z,98529.63
2018-06-05T19:18:28.372Z,98529.45
2018-06-05T19:20:57.754Z,98530.33
2018-06-05T19:23:27.212Z,98533.20
2018-06-05T19:26:00.108Z,98539.41
2018-06-05T19:28:30.141Z,98538.60
2018-06-05T19:30:59.538Z,98542.14
2018-06-05T19:33:29.044Z,98540.80
2018-06-05T19:35:58.500Z,98541.14
2018-06-05T19:38:27.915Z,98545.67
2018-06-05T19:40:57.339Z,98549.05
2018-06-05T19:43:26.732Z,98541.45
2018-06-05T19:45:56.177Z,98542.80
2018-06-05T19:48:25.672Z,98551.67
2018-06-05T19:50:55.094Z,98554.77
2018-06-05T19:53:24.529Z,98548.73
2018-06-05T19:55:54.030Z,98545.40
2018-06-05T19:58:23.638Z,98553.20
2018-06-05T20:00:53.082Z,98551.55
2018-06-05T20:03:22.445Z,98545.84
2018-06-05T20:05:52.264Z,98550.86
2018-06-05T20:08:21.724Z,98543.80
2018-06-05T20:11:04.786Z,98553.22
2018-06-05T20:13:34.197Z,98557.94
2018-06-05T20:16:03.726Z,98554.58
2018-06-05T20:18:33.151Z,98557.27
2018-06-05T20:21:02.572Z,98563.31
2018-06-05T20:23:31.972Z,98558.61
2018-06-05T20:26:01.658Z,98568.36
2018-06-05T20:28:31.497Z,98564.16
2018-06-05T20:31:00.900Z,98572.36
2018-06-05T20:33:34.632Z,98574.34
2018-06-05T20:36:04.287Z,98576.34
2018-06-05T20:38:33.665Z,98576.46
2018-06-05T20:41:03.117Z,98580.31
2018-06-05T20:43:32.522Z,98579.08
2018-06-05T20:46:02.009Z,98579.89
2018-06-05T20:48:31.549Z,98578.89
2018-06-05T20:51:00.951Z,98585.88
2018-06-05T20:53:30.451Z,98583.19
2018-06-05T20:55:59.920Z,98589.99
2018-06-05T20:58:29.475Z,98594.14
2018-06-05T21:00:59.200Z,98594.45
2018-06-05T21:03:28.578Z,98590.09
2018-06-05T21:05:57.988Z,98599.02
2018-06-05T21:08:27.539Z,98600.94
2018-06-05T21:10:59.819Z,98597.30
2018-06-05T21:13:29.224Z,98597.30
2018-06-05T21:15:58.594Z,98598.25
2018-06-05T21:18:28.135Z,98602.89
2018-06-05T21:20:57.562Z,98596.18
2018-06-05T21:23:27.178Z,98601.67
2018-06-05T21:25:56.596Z,98602.66
2018-06-05T21:28:26.049Z,98600.42
2018-06-05T21:30:55.709Z,98610.82
2018-06-05T21:33:25.096Z,98608.28
2018-06-05T21:35:54.495Z,98616.79
2018-06-05T21:38:23.921Z,98618.43
2018-06-05T21:40:53.327Z,98616.27
2018-06-05T21:43:22.696Z,98613.03
2018-06-05T21:45:52.230Z,98614.33
2018-06-05T21:48:21.642Z,98625.06
2018-06-05T21:51:02.453Z,98620.33
2018-06-05T21:53:31.819Z,98619.61
2018-06-05T21:56:01.276Z,98624.30
2018-06-05T21:58:30.646Z,98621.47
2018-06-05T22:01:00.050Z,98627.81
2018-06-05T22:03:29.447Z,98622.63
2018-06-05T22:05:59.487Z,98630.92
2018-06-05T22:08:29.033Z,98628.91
2018-06-05T22:10:58.437Z,98635.20
2018-06-05T22:13:27.966Z,98635.01
2018-06-05T22:16:12.634Z,98626.23
2018-06-05T22:18:42.072Z,98636.80
2018-06-05T22:21:11.495Z,98637.22
2018-06-05T22:23:41.568Z,98639.70
2018-06-05T22:26:11.571Z,98635.30
2018-06-05T22:28:40.974Z,98636.78
2018-06-05T22:31:10.364Z,98645.11
2018-06-05T22:33:40.277Z,98647.92
2018-06-05T22:36:09.645Z,98646.63
2018-06-05T22:38:39.012Z,98650.98
2018-06-05T22:41:08.412Z,98655.14
2018-06-05T22:43:37.833Z,98651.87
2018-06-05T22:46:07.336Z,98658.13
2018-06-05T22:48:36.836Z,98655.40
2018-06-05T22:51:06.324Z,98654.06
2018-06-05T22:53:35.729Z,98655.01
2018-06-05T22:56:05.605Z,98658.06
2018-06-05T22:58:35.048Z,98662.02
2018-06-05T23:01:04.689Z,98658.15
2018-06-05T23:03:34.107Z,98656.33
2018-06-05T23:06:03.574Z,98658.88
2018-06-05T23:08:33.009Z,98649.65
2018-06-05T23:11:02.441Z,98657.29
2018-06-05T23:13:31.843Z,98660.43
2018-06-05T23:16:17.349Z,98659.09
2018-06-05T23:18:46.810Z,98655.53
2018-06-05T23:21:16.192Z,98647.13
2018-06-05T23:23:45.632Z,98652.56
2018-06-05T23:26:15.191Z,98660.12
2018-06-05T23:28:44.624Z,98663.76
2018-06-05T23:31:14.040Z,98658.86
2018-06-05T23:33:43.803Z,98663.81
2018-06-05T23:36:13.195Z,98660.14
2018-06-05T23:38:42.821Z,98661.47
2018-06-05T23:41:12.226Z,98661.72
2018-06-05T23:43:41.582Z,98663.69
2018-06-05T23:46:10.988Z,98663.00
2018-06-05T23:48:40.403Z,98662.55
2018-06-05T23:51:09.821Z,98665.48
2018-06-05T23:53:39.270Z,98670.25
2018-06-05T23:56:08.720Z,98671.17
2018-06-05T23:58:39.202Z,98669.56
